Time;durP1;ratioP1;P1;durP2;ratioP2;P2;SDS_P1;SDS_P2;PMS_P1;PMS_P2;Temp;Humidity;BMP_temperature;BMP_pressure;BME280_temperature;BME280_humidity;BME280_pressure;Samples;Min_cycle;Max_cycle;Signal;HPM_P1;HPM_P2
2021/12/14 00:01:36;;;;;;;0.17;0.17;;;;;;;;;;4924902;29;20039;-93
2021/12/14 00:04:05;;;;;;;0.20;0.20;;;;;;;;;;4940431;29;20093;-94
2021/12/14 00:06:30;;;;;;;0.10;0.10;;;;;;;;;;4956044;29;20039;-93
2021/12/14 00:08:58;;;;;;;0.10;0.10;;;;;;;;;;4924467;29;20039;-93
2021/12/14 00:11:46;;;;;;;0.20;0.20;;;;;;;;;;4924620;29;20039;-93
2021/12/14 00:16:47;;;;;;;0.10;0.10;;;;;;;;;;4940456;29;20516;-93
2021/12/14 00:19:13;;;;;;;0.10;0.10;;;;;;;;;;4924879;29;20356;-95
2021/12/14 00:21:42;;;;;;;0.10;0.10;;;;;;;;;;4924316;29;20043;-93
2021/12/14 00:24:14;;;;;;;0.10;0.10;;;;;;;;;;4924643;29;20073;-93
2021/12/14 00:26:43;;;;;;;0.10;0.10;;;;;;;;;;4925117;29;20483;-92
2021/12/14 00:29:10;;;;;;;0.10;0.10;;;;;;;;;;4955773;29;20081;-93
2021/12/14 00:31:37;;;;;;;0.10;0.10;;;;;;;;;;4939766;29;20136;-93
2021/12/14 00:34:04;;;;;;;0.10;0.10;;;;;;;;;;4923960;29;20044;-93
2021/12/14 00:36:30;;;;;;;0.10;0.10;;;;;;;;;;4924383;29;20058;-93
2021/12/14 00:38:57;;;;;;;0.10;0.10;;;;;;;;;;4924151;29;20125;-93
2021/12/14 00:41:24;;;;;;;0.10;0.10;;;;;;;;;;4924052;29;20121;-93
2021/12/14 00:43:50;;;;;;;0.10;0.10;;;;;;;;;;4924145;29;20049;-94
2021/12/14 00:46:17;;;;;;;0.10;0.10;;;;;;;;;;4923597;29;20043;-93
2021/12/14 00:48:43;;;;;;;0.10;0.10;;;;;;;;;;4923576;29;20043;-94
2021/12/14 00:51:09;;;;;;;0.20;0.20;;;;;;;;;;4939302;29;20043;-93
2021/12/14 00:53:35;;;;;;;0.10;0.10;;;;;;;;;;4923053;29;20050;-93
2021/12/14 00:56:02;;;;;;;0.10;0.10;;;;;;;;;;4923407;29;20094;-93
2021/12/14 00:58:29;;;;;;;0.10;0.10;;;;;;;;;;4923380;29;20050;-93
2021/12/14 01:00:56;;;;;;;0.10;0.10;;;;;;;;;;4923346;29;20042;-93
2021/12/14 01:03:22;;;;;;;0.10;0.10;;;;;;;;;;4923169;29;20062;-94
2021/12/14 01:05:49;;;;;;;0.10;0.10;;;;;;;;;;4939395;29;20071;-95
2021/12/14 01:08:16;;;;;;;0.10;0.10;;;;;;;;;;4923866;29;20055;-95
2021/12/14 01:10:46;;;;;;;0.10;0.10;;;;;;;;;;4923740;29;20097;-94
2021/12/14 01:13:13;;;;;;;0.10;0.10;;;;;;;;;;4923511;29;20514;-94
2021/12/14 01:16:00;;;;;;;0.80;0.20;;;;;;;;;;4923420;29;20039;-93
2021/12/14 01:21:00;;;;;;;0.10;0.10;;;;;;;;;;4939683;29;20052;-93
2021/12/14 01:23:31;;;;;;;0.10;0.10;;;;;;;;;;4939168;29;20097;-94
2021/12/14 01:25:59;;;;;;;0.10;0.10;;;;;;;;;;4954766;29;20506;-93
2021/12/14 01:28:26;;;;;;;0.10;0.10;;;;;;;;;;4923336;29;20117;-92
2021/12/14 01:31:04;;;;;;;0.10;0.10;;;;;;;;;;4922560;29;20058;-93
2021/12/14 01:33:30;;;;;;;0.10;0.10;;;;;;;;;;4923658;29;20418;-92
2021/12/14 01:35:56;;;;;;;0.10;0.10;;;;;;;;;;4922491;29;20106;-93
2021/12/14 01:40:56;;;;;;;0.10;0.10;;;;;;;;;;4939125;29;20054;-93
2021/12/14 01:43:28;;;;;;;0.10;0.10;;;;;;;;;;4922312;29;20746;-93
2021/12/14 01:45:54;;;;;;;0.20;0.20;;;;;;;;;;4938283;29;20054;-93
2021/12/14 01:48:21;;;;;;;0.10;0.10;;;;;;;;;;4922520;29;20514;-93
2021/12/14 01:50:57;;;;;;;0.10;0.10;;;;;;;;;;4938032;29;20047;-92
2021/12/14 01:53:23;;;;;;;0.38;0.38;;;;;;;;;;4938047;29;20047;-93
2021/12/14 01:55:53;;;;;;;0.10;0.10;;;;;;;;;;4922422;29;20562;-92
2021/12/14 01:58:19;;;;;;;0.10;0.10;;;;;;;;;;4923023;29;20058;-92
2021/12/14 02:00:47;;;;;;;0.10;0.10;;;;;;;;;;4922432;29;20053;-92
2021/12/14 02:03:16;;;;;;;0.10;0.10;;;;;;;;;;4921914;29;20407;-92
2021/12/14 02:05:51;;;;;;;0.10;0.10;;;;;;;;;;4937418;29;20514;-92
2021/12/14 02:08:25;;;;;;;0.10;0.10;;;;;;;;;;4922154;29;20039;-92
2021/12/14 02:10:51;;;;;;;0.28;0.28;;;;;;;;;;4937777;29;20047;-93
2021/12/14 02:13:24;;;;;;;0.10;0.10;;;;;;;;;;4937652;29;20051;-92
2021/12/14 02:15:50;;;;;;;0.10;0.10;;;;;;;;;;4938031;29;20046;-93
2021/12/14 02:18:17;;;;;;;0.10;0.10;;;;;;;;;;4937818;29;20125;-93
2021/12/14 02:20:45;;;;;;;0.10;0.10;;;;;;;;;;4921659;29;20126;-92
2021/12/14 02:23:11;;;;;;;0.10;0.10;;;;;;;;;;4921634;29;20047;-91
2021/12/14 02:25:40;;;;;;;0.10;0.10;;;;;;;;;;4921391;29;20478;-91
2021/12/14 02:28:07;;;;;;;0.10;0.10;;;;;;;;;;4921425;29;20043;-92
2021/12/14 02:30:34;;;;;;;0.20;0.20;;;;;;;;;;4921366;29;20125;-92
2021/12/14 02:33:04;;;;;;;1.00;0.30;;;;;;;;;;4937365;29;20080;-91
2021/12/14 02:35:30;;;;;;;0.10;0.10;;;;;;;;;;4937076;29;20098;-91
2021/12/14 02:37:59;;;;;;;0.20;0.20;;;;;;;;;;4921149;29;20043;-91
2021/12/14 02:40:32;;;;;;;0.10;0.10;;;;;;;;;;4921535;29;20039;-92
2021/12/14 02:42:59;;;;;;;0.10;0.10;;;;;;;;;;4937275;29;20050;-91
2021/12/14 02:45:25;;;;;;;0.10;0.10;;;;;;;;;;4921613;29;20070;-92
2021/12/14 02:47:51;;;;;;;0.10;0.10;;;;;;;;;;4937539;29;20067;-91
2021/12/14 02:50:17;;;;;;;0.10;0.10;;;;;;;;;;4921425;29;20039;-92
2021/12/14 02:52:43;;;;;;;1.45;0.20;;;;;;;;;;4921236;29;20138;-93
2021/12/14 02:55:13;;;;;;;0.20;0.20;;;;;;;;;;4937266;29;20039;-92
2021/12/14 02:57:41;;;;;;;0.13;0.13;;;;;;;;;;4937547;29;20039;-92
2021/12/14 03:00:09;;;;;;;0.10;0.10;;;;;;;;;;4936994;29;20483;-92
2021/12/14 03:02:35;;;;;;;0.10;0.10;;;;;;;;;;4921397;29;20501;-92
2021/12/14 03:05:06;;;;;;;0.10;0.10;;;;;;;;;;4937254;29;20035;-93
2021/12/14 03:07:33;;;;;;;0.10;0.10;;;;;;;;;;4921435;29;20039;-92
2021/12/14 03:10:17;;;;;;;0.10;0.10;;;;;;;;;;4937420;29;20126;-92
2021/12/14 03:12:44;;;;;;;0.35;0.35;;;;;;;;;;4923697;29;20692;-92
2021/12/14 03:15:15;;;;;;;0.15;0.15;;;;;;;;;;4921733;29;20490;-93
2021/12/14 03:17:43;;;;;;;0.10;0.10;;;;;;;;;;4922567;29;20043;-93
2021/12/14 03:20:18;;;;;;;0.10;0.10;;;;;;;;;;4925408;29;20039;-93
2021/12/14 03:22:44;;;;;;;0.30;0.30;;;;;;;;;;4956965;29;20039;-92
2021/12/14 03:25:10;;;;;;;0.15;0.15;;;;;;;;;;4940949;29;20061;-92
2021/12/14 03:27:39;;;;;;;0.10;0.10;;;;;;;;;;4940637;29;20066;-92
2021/12/14 03:30:24;;;;;;;0.13;0.13;;;;;;;;;;4925055;29;20397;-92
2021/12/14 03:32:50;;;;;;;0.20;0.20;;;;;;;;;;4940559;29;20499;-92
2021/12/14 03:35:19;;;;;;;0.10;0.10;;;;;;;;;;4940825;29;20118;-93
2021/12/14 03:37:48;;;;;;;0.10;0.10;;;;;;;;;;4925460;29;20039;-95
2021/12/14 03:40:17;;;;;;;0.10;0.10;;;;;;;;;;4941469;29;20446;-92
2021/12/14 03:42:45;;;;;;;0.10;0.10;;;;;;;;;;4924447;29;20043;-92
2021/12/14 03:45:13;;;;;;;0.10;0.10;;;;;;;;;;4956111;29;20051;-92
2021/12/14 03:47:41;;;;;;;0.10;0.10;;;;;;;;;;4940593;29;20047;-92
2021/12/14 03:50:07;;;;;;;0.20;0.20;;;;;;;;;;4940269;29;20054;-95
2021/12/14 03:52:35;;;;;;;0.10;0.10;;;;;;;;;;4956665;29;20047;-94
2021/12/14 03:55:03;;;;;;;0.17;0.17;;;;;;;;;;4924837;29;20174;-93
2021/12/14 03:57:29;;;;;;;0.10;0.10;;;;;;;;;;4924652;29;20050;-92
2021/12/14 03:59:55;;;;;;;0.10;0.10;;;;;;;;;;4940596;29;20035;-94
2021/12/14 04:02:21;;;;;;;0.20;0.20;;;;;;;;;;4940642;29;20039;-91
2021/12/14 04:04:52;;;;;;;0.10;0.10;;;;;;;;;;4940649;29;20061;-93
2021/12/14 04:07:18;;;;;;;0.10;0.10;;;;;;;;;;4925083;29;20392;-92
2021/12/14 04:09:44;;;;;;;0.10;0.10;;;;;;;;;;4924053;29;20102;-92
2021/12/14 04:12:13;;;;;;;0.10;0.10;;;;;;;;;;4940004;29;20043;-91
2021/12/14 04:14:40;;;;;;;0.10;0.10;;;;;;;;;;4924364;29;20047;-92
2021/12/14 04:17:06;;;;;;;0.10;0.10;;;;;;;;;;4924230;29;20039;-92
2021/12/14 04:19:34;;;;;;;0.10;0.10;;;;;;;;;;4940080;29;20209;-93
2021/12/14 04:22:03;;;;;;;0.10;0.10;;;;;;;;;;4924144;29;20039;-92
2021/12/14 04:24:30;;;;;;;0.10;0.10;;;;;;;;;;4923701;29;20043;-92
2021/12/14 04:26:56;;;;;;;0.10;0.10;;;;;;;;;;4923949;29;20043;-91
2021/12/14 04:29:22;;;;;;;0.10;0.10;;;;;;;;;;4939610;29;20047;-92
2021/12/14 04:31:49;;;;;;;0.10;0.10;;;;;;;;;;4923563;29;20119;-92
2021/12/14 04:34:17;;;;;;;0.25;0.22;;;;;;;;;;4939674;29;20051;-92
2021/12/14 04:36:44;;;;;;;0.10;0.10;;;;;;;;;;4923785;29;20054;-94
2021/12/14 04:53:21;;;;;;;0.13;0.13;;;;;;;;;;4941836;29;20051;-92
2021/12/14 04:55:47;;;;;;;0.13;0.13;;;;;;;;;;4923111;29;20043;-93
2021/12/14 04:58:13;;;;;;;0.20;0.20;;;;;;;;;;4923570;29;20133;-93
2021/12/14 05:00:40;;;;;;;0.10;0.10;;;;;;;;;;4923234;29;20035;-92
2021/12/14 05:03:26;;;;;;;0.10;0.10;;;;;;;;;;4923271;29;20050;-93
2021/12/14 05:05:58;;;;;;;0.10;0.10;;;;;;;;;;4954534;29;20058;-93
2021/12/14 05:11:07;;;;;;;0.10;0.10;;;;;;;;;;4939655;29;20497;-94
2021/12/14 05:13:41;;;;;;;0.10;0.10;;;;;;;;;;4938978;29;20086;-92
2021/12/14 05:16:07;;;;;;;0.10;0.10;;;;;;;;;;4938850;29;20102;-92
2021/12/14 05:18:33;;;;;;;0.10;0.10;;;;;;;;;;4923095;29;20046;-92
2021/12/14 05:20:59;;;;;;;0.10;0.10;;;;;;;;;;4923303;29;20041;-92
2021/12/14 05:23:32;;;;;;;0.10;0.10;;;;;;;;;;4954577;29;20074;-93
2021/12/14 05:25:58;;;;;;;0.10;0.10;;;;;;;;;;4954813;29;20043;-92
2021/12/14 05:28:24;;;;;;;0.10;0.10;;;;;;;;;;4938858;29;20058;-93
2021/12/14 05:30:52;;;;;;;0.10;0.10;;;;;;;;;;4938450;29;20138;-93
2021/12/14 05:33:19;;;;;;;0.10;0.10;;;;;;;;;;4938643;29;20054;-93
2021/12/14 05:35:46;;;;;;;0.10;0.10;;;;;;;;;;4938734;29;20507;-92
2021/12/14 05:38:20;;;;;;;0.17;0.17;;;;;;;;;;4938891;29;20049;-92
2021/12/14 05:43:24;;;;;;;0.15;0.15;;;;;;;;;;4954430;29;19968;-93
2021/12/14 05:45:52;;;;;;;0.10;0.10;;;;;;;;;;4922733;29;20047;-92
2021/12/14 05:48:19;;;;;;;0.10;0.10;;;;;;;;;;4938936;29;20062;-93
2021/12/14 05:50:46;;;;;;;0.10;0.10;;;;;;;;;;4922854;29;20039;-93
2021/12/14 05:53:20;;;;;;;0.10;0.10;;;;;;;;;;4938671;29;20483;-94
2021/12/14 05:55:46;;;;;;;0.45;0.10;;;;;;;;;;4922975;29;20128;-93
2021/12/14 05:58:14;;;;;;;0.25;0.22;;;;;;;;;;4922545;29;20134;-94
2021/12/14 06:00:44;;;;;;;0.10;0.10;;;;;;;;;;4922567;29;20043;-93
2021/12/14 06:03:14;;;;;;;0.20;0.20;;;;;;;;;;4922899;29;20045;-93
2021/12/14 06:05:40;;;;;;;0.45;0.20;;;;;;;;;;4922380;29;20101;-94
2021/12/14 06:08:06;;;;;;;0.20;0.20;;;;;;;;;;4938622;29;20063;-93
2021/12/14 06:10:32;;;;;;;0.20;0.20;;;;;;;;;;4938326;29;20082;-92
2021/12/14 06:12:58;;;;;;;0.10;0.10;;;;;;;;;;4937800;29;20090;-94
2021/12/14 06:15:27;;;;;;;0.10;0.10;;;;;;;;;;4922391;29;20438;-94
2021/12/14 06:17:56;;;;;;;0.10;0.10;;;;;;;;;;4922808;29;20042;-94
2021/12/14 06:20:23;;;;;;;0.30;0.30;;;;;;;;;;4938677;29;20124;-92
2021/12/14 06:22:52;;;;;;;0.10;0.10;;;;;;;;;;4921737;29;20058;-93
2021/12/14 06:25:27;;;;;;;0.10;0.10;;;;;;;;;;4937615;29;20043;-93
2021/12/14 06:27:56;;;;;;;1.13;0.13;;;;;;;;;;4937894;29;20083;-93
2021/12/14 06:30:26;;;;;;;0.28;0.28;;;;;;;;;;4937473;29;20058;-93
2021/12/14 06:32:59;;;;;;;0.28;0.28;;;;;;;;;;4921773;29;20050;-93
2021/12/14 06:35:28;;;;;;;0.20;0.20;;;;;;;;;;4937571;29;20043;-93
2021/12/14 06:40:30;;;;;;;0.10;0.10;;;;;;;;;;4953736;29;20039;-92
2021/12/14 06:42:57;;;;;;;0.28;0.28;;;;;;;;;;4921516;29;20051;-94
2021/12/14 06:45:25;;;;;;;0.10;0.10;;;;;;;;;;4937433;29;20138;-91
2021/12/14 06:47:52;;;;;;;0.30;0.30;;;;;;;;;;4953673;29;20074;-92
2021/12/14 06:50:21;;;;;;;0.20;0.20;;;;;;;;;;4937451;29;20099;-93
2021/12/14 06:53:13;;;;;;;0.30;0.30;;;;;;;;;;4940499;29;20089;-93
2021/12/14 06:55:39;;;;;;;0.10;0.10;;;;;;;;;;4953981;29;20051;-92
2021/12/14 06:58:25;;;;;;;0.15;0.15;;;;;;;;;;4941283;29;20122;-92
2021/12/14 07:01:00;;;;;;;0.10;0.10;;;;;;;;;;4941424;29;20039;-93
2021/12/14 07:03:56;;;;;;;0.20;0.20;;;;;;;;;;4957373;29;20475;-94
2021/12/14 07:06:28;;;;;;;0.38;0.30;;;;;;;;;;4925515;29;20105;-96
2021/12/14 07:08:55;;;;;;;0.20;0.20;;;;;;;;;;4941469;29;20059;-91
2021/12/14 07:11:22;;;;;;;0.20;0.20;;;;;;;;;;4941736;29;20082;-93
2021/12/14 07:13:48;;;;;;;0.10;0.10;;;;;;;;;;4940915;29;20407;-93
2021/12/14 07:16:19;;;;;;;0.20;0.20;;;;;;;;;;4940923;29;20039;-93
2021/12/14 07:18:46;;;;;;;0.20;0.20;;;;;;;;;;4941294;29;20398;-92
2021/12/14 07:21:12;;;;;;;0.10;0.10;;;;;;;;;;4925097;29;20035;-94
2021/12/14 07:23:38;;;;;;;0.10;0.10;;;;;;;;;;4941732;29;20106;-93
2021/12/14 07:26:04;;;;;;;0.30;0.30;;;;;;;;;;4925906;29;20039;-94
2021/12/14 07:28:37;;;;;;;0.10;0.10;;;;;;;;;;4957907;29;20102;-96
2021/12/14 07:31:05;;;;;;;0.25;0.17;;;;;;;;;;4943878;29;20059;-95
2021/12/14 07:33:32;;;;;;;0.28;0.28;;;;;;;;;;4908641;29;20057;-94
2021/12/14 07:35:59;;;;;;;0.40;0.30;;;;;;;;;;4909010;29;20054;-93
2021/12/14 07:38:34;;;;;;;0.10;0.10;;;;;;;;;;4924698;29;20465;-95
2021/12/14 07:41:03;;;;;;;0.10;0.10;;;;;;;;;;4924346;29;20092;-93
2021/12/14 07:43:33;;;;;;;0.70;0.57;;;;;;;;;;4939804;29;20054;-93
2021/12/14 07:45:59;;;;;;;0.10;0.10;;;;;;;;;;4923525;29;20055;-92
2021/12/14 07:48:44;;;;;;;4.90;0.63;;;;;;;;;;4907685;29;20604;-90
2021/12/14 07:51:11;;;;;;;0.30;0.30;;;;;;;;;;4907755;29;20086;-92
2021/12/14 07:53:41;;;;;;;0.10;0.10;;;;;;;;;;4923918;29;20118;-94
2021/12/14 07:56:08;;;;;;;0.10;0.10;;;;;;;;;;4907644;29;20043;-91
2021/12/14 07:58:38;;;;;;;0.15;0.15;;;;;;;;;;4923293;29;20438;-91
2021/12/14 08:01:05;;;;;;;0.17;0.17;;;;;;;;;;4923346;29;20039;-93
2021/12/14 08:03:33;;;;;;;0.10;0.10;;;;;;;;;;4922769;29;20093;-92
2021/12/14 08:05:59;;;;;;;0.10;0.10;;;;;;;;;;4924138;29;20082;-90
2021/12/14 08:08:42;;;;;;;0.10;0.10;;;;;;;;;;4942783;29;20078;-90
2021/12/14 08:11:40;;;;;;;0.10;0.10;;;;;;;;;;4934259;29;20103;-91
2021/12/14 08:14:17;;;;;;;0.10;0.10;;;;;;;;;;4962244;28;20074;-91
2021/12/14 08:17:06;;;;;;;0.10;0.10;;;;;;;;;;5020159;23;20059;-94
2021/12/14 08:19:52;;;;;;;0.10;0.10;;;;;;;;;;4929233;29;20118;-94
2021/12/14 08:22:29;;;;;;;0.10;0.10;;;;;;;;;;4931932;29;20102;-96
2021/12/14 08:24:55;;;;;;;0.10;0.10;;;;;;;;;;4925679;29;20047;-94
2021/12/14 08:27:23;;;;;;;0.43;0.43;;;;;;;;;;4923871;29;20050;-92
2021/12/14 08:29:51;;;;;;;0.10;0.10;;;;;;;;;;4924330;29;20076;-93
2021/12/14 08:32:20;;;;;;;0.20;0.20;;;;;;;;;;4939350;29;20129;-94
2021/12/14 08:34:46;;;;;;;0.10;0.10;;;;;;;;;;4939027;29;20112;-89
2021/12/14 08:37:14;;;;;;;0.10;0.10;;;;;;;;;;4936509;29;20043;-90
2021/12/14 08:39:47;;;;;;;0.10;0.10;;;;;;;;;;4939164;29;20042;-90
2021/12/14 08:42:19;;;;;;;0.10;0.10;;;;;;;;;;4938250;29;20050;-89
2021/12/14 08:44:52;;;;;;;0.22;0.22;;;;;;;;;;4938939;29;20499;-89
2021/12/14 08:47:29;;;;;;;0.10;0.10;;;;;;;;;;4938864;29;20524;-89
2021/12/14 08:49:55;;;;;;;0.10;0.10;;;;;;;;;;4938790;29;20099;-91
2021/12/14 08:52:21;;;;;;;0.10;0.10;;;;;;;;;;4922662;29;20047;-90
2021/12/14 08:54:47;;;;;;;0.10;0.10;;;;;;;;;;4922706;29;20047;-89
2021/12/14 08:57:23;;;;;;;0.10;0.10;;;;;;;;;;4938401;29;20558;-91
2021/12/14 08:59:49;;;;;;;0.10;0.10;;;;;;;;;;4938750;29;20043;-91
2021/12/14 09:02:16;;;;;;;0.20;0.20;;;;;;;;;;4938460;29;20051;-90
2021/12/14 09:04:54;;;;;;;0.25;0.20;;;;;;;;;;4938688;29;20391;-91
2021/12/14 09:07:21;;;;;;;0.10;0.10;;;;;;;;;;4922880;29;20495;-91
2021/12/14 09:09:47;;;;;;;0.20;0.20;;;;;;;;;;4938649;29;20043;-89
2021/12/14 09:12:13;;;;;;;0.10;0.10;;;;;;;;;;4938203;29;20101;-89
2021/12/14 09:14:39;;;;;;;0.10;0.10;;;;;;;;;;4953551;28;20126;-90
2021/12/14 09:17:06;;;;;;;0.10;0.10;;;;;;;;;;4921894;29;20107;-90
2021/12/14 09:19:50;;;;;;;0.10;0.10;;;;;;;;;;4922250;29;20054;-91
2021/12/14 09:22:24;;;;;;;0.32;0.32;;;;;;;;;;4922688;29;20383;-93
2021/12/14 09:24:50;;;;;;;0.52;0.52;;;;;;;;;;4922278;29;20110;-90
2021/12/14 09:27:17;;;;;;;0.20;0.20;;;;;;;;;;4938669;29;20131;-92
2021/12/14 09:29:43;;;;;;;0.65;0.65;;;;;;;;;;4922956;29;20098;-91
2021/12/14 09:32:10;;;;;;;0.10;0.10;;;;;;;;;;4921583;29;20058;-91
2021/12/14 09:34:37;;;;;;;0.10;0.10;;;;;;;;;;4922139;29;20043;-91
2021/12/14 09:37:04;;;;;;;0.10;0.10;;;;;;;;;;4937914;29;20097;-90
2021/12/14 09:39:31;;;;;;;0.10;0.10;;;;;;;;;;4922440;29;20035;-91
2021/12/14 09:41:58;;;;;;;0.20;0.20;;;;;;;;;;4937788;29;20043;-91
2021/12/14 09:44:25;;;;;;;0.20;0.20;;;;;;;;;;4937706;29;20074;-91
2021/12/14 09:46:51;;;;;;;0.10;0.10;;;;;;;;;;4921940;29;20039;-90
2021/12/14 09:49:17;;;;;;;0.20;0.20;;;;;;;;;;4937894;29;20120;-91
2021/12/14 09:51:44;;;;;;;1.35;0.50;;;;;;;;;;4921977;29;20474;-91
2021/12/14 09:54:11;;;;;;;0.10;0.10;;;;;;;;;;4937666;29;20047;-91
2021/12/14 09:56:39;;;;;;;0.10;0.10;;;;;;;;;;4937744;29;20098;-91
2021/12/14 09:59:05;;;;;;;0.10;0.10;;;;;;;;;;4937774;29;20503;-90
2021/12/14 10:01:39;;;;;;;0.80;0.32;;;;;;;;;;4937219;29;20121;-91
2021/12/14 10:04:06;;;;;;;0.93;0.93;;;;;;;;;;4937878;29;20461;-91
2021/12/14 10:06:33;;;;;;;0.20;0.20;;;;;;;;;;4921370;29;20545;-90
2021/12/14 10:09:03;;;;;;;0.10;0.10;;;;;;;;;;4921589;29;20130;-91
2021/12/14 10:11:47;;;;;;;0.10;0.10;;;;;;;;;;4921572;29;20085;-90
2021/12/14 10:14:13;;;;;;;0.52;0.35;;;;;;;;;;4923174;29;20044;-91
2021/12/14 10:16:39;;;;;;;0.10;0.10;;;;;;;;;;4937117;29;20062;-91
2021/12/14 10:19:07;;;;;;;0.22;0.22;;;;;;;;;;4953193;29;20086;-91
2021/12/14 10:21:38;;;;;;;0.25;0.25;;;;;;;;;;4921361;29;20047;-91
2021/12/14 10:24:04;;;;;;;0.10;0.10;;;;;;;;;;4952893;29;20077;-91
2021/12/14 10:26:30;;;;;;;0.20;0.20;;;;;;;;;;4936792;29;20200;-91
2021/12/14 10:28:57;;;;;;;0.10;0.10;;;;;;;;;;4921350;29;20039;-91
2021/12/14 10:31:29;;;;;;;0.10;0.10;;;;;;;;;;4936929;29;20475;-91
2021/12/14 10:33:58;;;;;;;0.25;0.25;;;;;;;;;;4938906;29;20051;-90
2021/12/14 10:36:34;;;;;;;0.10;0.10;;;;;;;;;;4937307;29;20039;-91
2021/12/14 10:39:22;;;;;;;0.20;0.20;;;;;;;;;;4922534;29;20071;-91
2021/12/14 10:44:37;;;;;;;0.10;0.10;;;;;;;;;;4939338;29;20047;-91
2021/12/14 10:47:03;;;;;;;0.20;0.20;;;;;;;;;;4937067;29;20471;-91
2021/12/14 10:49:29;;;;;;;0.20;0.20;;;;;;;;;;4936710;29;20054;-91
2021/12/14 10:51:57;;;;;;;0.10;0.10;;;;;;;;;;4921205;29;20039;-90
2021/12/14 10:54:23;;;;;;;0.20;0.20;;;;;;;;;;4921021;29;20047;-91
2021/12/14 10:56:51;;;;;;;0.10;0.10;;;;;;;;;;4936899;29;20476;-91
2021/12/14 10:59:18;;;;;;;0.10;0.10;;;;;;;;;;4937226;29;20176;-91
2021/12/14 11:01:49;;;;;;;0.30;0.30;;;;;;;;;;4921089;29;20035;-91
2021/12/14 11:04:16;;;;;;;0.10;0.10;;;;;;;;;;4937549;29;20186;-90
2021/12/14 11:06:43;;;;;;;0.47;0.40;;;;;;;;;;4920897;29;20235;-91
2021/12/14 11:11:38;;;;;;;0.10;0.10;;;;;;;;;;4936756;29;20047;-92
2021/12/14 11:14:14;;;;;;;0.10;0.10;;;;;;;;;;4920853;29;20475;-91
2021/12/14 11:19:41;;;;;;;0.10;0.10;;;;;;;;;;4952526;29;20050;-91
2021/12/14 11:22:17;;;;;;;0.10;0.10;;;;;;;;;;4936493;29;20039;-91
2021/12/14 11:24:44;;;;;;;0.35;0.35;;;;;;;;;;4936652;29;20051;-91
2021/12/14 11:27:14;;;;;;;0.20;0.20;;;;;;;;;;4936592;29;20049;-91
2021/12/14 11:29:40;;;;;;;0.10;0.10;;;;;;;;;;4920821;29;20047;-91
2021/12/14 11:32:07;;;;;;;0.10;0.10;;;;;;;;;;4921026;29;20055;-90
2021/12/14 11:34:35;;;;;;;0.20;0.20;;;;;;;;;;4920980;29;20083;-91
2021/12/14 11:37:04;;;;;;;0.30;0.30;;;;;;;;;;4920883;29;20050;-90
2021/12/14 11:39:32;;;;;;;0.65;0.38;;;;;;;;;;4939358;29;20050;-91
2021/12/14 11:42:04;;;;;;;0.10;0.10;;;;;;;;;;4940176;29;20042;-91
2021/12/14 11:44:30;;;;;;;0.20;0.20;;;;;;;;;;4940224;29;20435;-91
2021/12/14 11:47:02;;;;;;;0.75;0.20;;;;;;;;;;4939820;29;20043;-91
2021/12/14 11:49:40;;;;;;;0.10;0.10;;;;;;;;;;4955909;29;20495;-90
2021/12/14 11:52:06;;;;;;;0.10;0.10;;;;;;;;;;4939790;29;20356;-90
2021/12/14 11:54:38;;;;;;;0.10;0.10;;;;;;;;;;4924022;29;20039;-90
2021/12/14 11:57:04;;;;;;;0.10;0.10;;;;;;;;;;4923822;29;20066;-90
2021/12/14 11:59:30;;;;;;;0.20;0.20;;;;;;;;;;4923755;29;20513;-90
2021/12/14 12:01:56;;;;;;;0.30;0.30;;;;;;;;;;4923683;29;20130;-90
2021/12/14 12:04:29;;;;;;;0.20;0.20;;;;;;;;;;4939721;29;20049;-90
2021/12/14 12:09:35;;;;;;;1.45;0.20;;;;;;;;;;4955420;29;20047;-91
2021/12/14 12:12:07;;;;;;;0.10;0.10;;;;;;;;;;4924951;29;20047;-90
2021/12/14 12:14:52;;;;;;;0.20;0.20;;;;;;;;;;4939173;29;20130;-91
2021/12/14 12:17:20;;;;;;;0.20;0.20;;;;;;;;;;4939243;29;20086;-90
2021/12/14 12:19:51;;;;;;;0.10;0.10;;;;;;;;;;4923491;29;20486;-91
2021/12/14 12:22:17;;;;;;;0.10;0.10;;;;;;;;;;4939491;29;20432;-91
2021/12/14 12:24:47;;;;;;;0.40;0.40;;;;;;;;;;4923581;29;20043;-90
2021/12/14 12:27:22;;;;;;;0.10;0.10;;;;;;;;;;4923224;29;20047;-90
2021/12/14 12:29:48;;;;;;;0.10;0.10;;;;;;;;;;4923474;29;20043;-90
2021/12/14 12:32:21;;;;;;;0.43;0.40;;;;;;;;;;4923314;29;20207;-91
2021/12/14 12:34:49;;;;;;;0.10;0.10;;;;;;;;;;4940146;29;20060;-90
2021/12/14 12:37:17;;;;;;;0.20;0.20;;;;;;;;;;4923742;29;20031;-91
2021/12/14 12:39:47;;;;;;;0.10;0.10;;;;;;;;;;4923525;29;20466;-91
2021/12/14 12:42:15;;;;;;;0.10;0.10;;;;;;;;;;4923427;29;20397;-91
2021/12/14 12:44:42;;;;;;;0.10;0.10;;;;;;;;;;4942108;29;20043;-91
2021/12/14 12:47:11;;;;;;;0.10;0.10;;;;;;;;;;4943384;29;20051;-90
2021/12/14 12:49:44;;;;;;;0.10;0.10;;;;;;;;;;4946025;29;20039;-90
2021/12/14 12:52:14;;;;;;;0.15;0.15;;;;;;;;;;4962425;28;20043;-90
2021/12/14 12:54:44;;;;;;;0.15;0.15;;;;;;;;;;4954980;28;20069;-90
2021/12/14 12:57:16;;;;;;;0.30;0.30;;;;;;;;;;4938805;29;20046;-90
2021/12/14 12:59:55;;;;;;;0.10;0.10;;;;;;;;;;4954640;29;20082;-90
2021/12/14 13:02:23;;;;;;;0.10;0.10;;;;;;;;;;4922791;29;20086;-90
2021/12/14 13:04:51;;;;;;;0.20;0.20;;;;;;;;;;4922834;29;20043;-90
2021/12/14 13:07:17;;;;;;;0.20;0.20;;;;;;;;;;4938309;29;20035;-90
2021/12/14 13:10:02;;;;;;;0.10;0.10;;;;;;;;;;4922572;29;20174;-91
2021/12/14 13:12:48;;;;;;;0.10;0.10;;;;;;;;;;4937980;29;20074;-91
2021/12/14 13:15:30;;;;;;;0.10;0.10;;;;;;;;;;4922505;29;20043;-90
2021/12/14 13:18:15;;;;;;;0.13;0.13;;;;;;;;;;4954273;29;20047;-90
2021/12/14 13:20:41;;;;;;;0.17;0.13;;;;;;;;;;4954139;29;20043;-90
2021/12/14 13:23:07;;;;;;;0.10;0.10;;;;;;;;;;4922379;29;20047;-90
2021/12/14 13:25:37;;;;;;;0.10;0.10;;;;;;;;;;4922245;29;20110;-91
2021/12/14 13:28:03;;;;;;;0.10;0.10;;;;;;;;;;4937895;29;20055;-91
2021/12/14 13:30:30;;;;;;;0.22;0.22;;;;;;;;;;4922414;29;20074;-90
2021/12/14 13:32:55;;;;;;;0.10;0.10;;;;;;;;;;4921957;29;20052;-89
2021/12/14 13:35:27;;;;;;;0.10;0.10;;;;;;;;;;4937973;29;20043;-91
2021/12/14 13:38:00;;;;;;;0.10;0.10;;;;;;;;;;4937864;29;20047;-91
2021/12/14 13:40:40;;;;;;;0.10;0.10;;;;;;;;;;4922208;29;20483;-90
2021/12/14 13:43:06;;;;;;;0.10;0.10;;;;;;;;;;4937565;29;20435;-90
2021/12/14 13:45:33;;;;;;;0.10;0.10;;;;;;;;;;4953452;29;20135;-91
2021/12/14 13:47:59;;;;;;;0.30;0.30;;;;;;;;;;4922019;29;20054;-91
2021/12/14 13:50:27;;;;;;;0.10;0.10;;;;;;;;;;4921806;29;20109;-91
2021/12/14 13:52:53;;;;;;;0.10;0.10;;;;;;;;;;4921719;29;20047;-91
2021/12/14 13:55:20;;;;;;;0.10;0.10;;;;;;;;;;4921894;29;20043;-91
2021/12/14 13:57:49;;;;;;;0.10;0.10;;;;;;;;;;4921842;29;20062;-90
2021/12/14 14:00:17;;;;;;;0.10;0.10;;;;;;;;;;4921723;28;20035;-90
2021/12/14 14:02:43;;;;;;;0.10;0.10;;;;;;;;;;4937210;29;20047;-90
2021/12/14 14:05:09;;;;;;;0.10;0.10;;;;;;;;;;4921573;29;20483;-91
2021/12/14 14:07:35;;;;;;;0.10;0.10;;;;;;;;;;4937733;29;20098;-90
2021/12/14 14:10:01;;;;;;;0.10;0.10;;;;;;;;;;4937534;29;20046;-91
2021/12/14 14:12:27;;;;;;;0.68;0.68;;;;;;;;;;4921583;29;20050;-90
2021/12/14 14:14:54;;;;;;;0.10;0.10;;;;;;;;;;4921438;29;20043;-90
2021/12/14 14:17:20;;;;;;;0.10;0.10;;;;;;;;;;4937168;29;20055;-90
2021/12/14 14:19:47;;;;;;;0.10;0.10;;;;;;;;;;4953021;29;20043;-90
2021/12/14 14:22:33;;;;;;;0.10;0.10;;;;;;;;;;4921393;29;20138;-91
2021/12/14 14:25:04;;;;;;;0.10;0.10;;;;;;;;;;4937581;29;20137;-90
2021/12/14 14:27:33;;;;;;;0.17;0.17;;;;;;;;;;4921293;29;20047;-90
2021/12/14 14:29:59;;;;;;;0.45;0.45;;;;;;;;;;4937528;29;20447;-91
2021/12/14 14:32:30;;;;;;;0.10;0.10;;;;;;;;;;4937077;29;20133;-90
2021/12/14 14:34:57;;;;;;;0.10;0.10;;;;;;;;;;4921875;29;20043;-90
2021/12/14 14:37:33;;;;;;;0.10;0.10;;;;;;;;;;4921118;29;20047;-91
2021/12/14 14:40:09;;;;;;;0.10;0.10;;;;;;;;;;4937314;29;20031;-90
2021/12/14 14:42:36;;;;;;;0.10;0.10;;;;;;;;;;4936712;29;20213;-90
2021/12/14 14:45:13;;;;;;;0.20;0.20;;;;;;;;;;4921342;29;20455;-91
2021/12/14 14:47:39;;;;;;;0.10;0.10;;;;;;;;;;4952928;29;20074;-90
2021/12/14 14:50:07;;;;;;;0.10;0.10;;;;;;;;;;4952706;29;20043;-90
2021/12/14 14:52:38;;;;;;;0.10;0.10;;;;;;;;;;4936833;29;20051;-90
2021/12/14 14:55:21;;;;;;;0.10;0.10;;;;;;;;;;4921406;29;20039;-90
2021/12/14 14:57:48;;;;;;;0.10;0.10;;;;;;;;;;4921193;29;20039;-91
2021/12/14 15:00:18;;;;;;;0.10;0.10;;;;;;;;;;4921313;29;20044;-90
2021/12/14 15:02:50;;;;;;;0.10;0.10;;;;;;;;;;4921030;29;20035;-90
2021/12/14 15:05:18;;;;;;;0.10;0.10;;;;;;;;;;4921467;29;20043;-90
2021/12/14 15:07:57;;;;;;;0.30;0.30;;;;;;;;;;4921299;29;20047;-91
2021/12/14 15:10:30;;;;;;;0.10;0.10;;;;;;;;;;4937005;29;20391;-91
2021/12/14 15:13:18;;;;;;;0.10;0.10;;;;;;;;;;4922507;29;20367;-91
2021/12/14 15:16:03;;;;;;;0.10;0.10;;;;;;;;;;4939898;29;20087;-91
2021/12/14 15:18:44;;;;;;;0.10;0.10;;;;;;;;;;4940373;29;20491;-91
2021/12/14 15:21:29;;;;;;;0.10;0.10;;;;;;;;;;4940437;29;20039;-90
2021/12/14 15:23:56;;;;;;;0.10;0.10;;;;;;;;;;4939906;29;20043;-90
2021/12/14 15:26:22;;;;;;;0.10;0.10;;;;;;;;;;4939902;29;20050;-91
2021/12/14 15:29:05;;;;;;;0.25;0.25;;;;;;;;;;4940495;29;20039;-90
2021/12/14 15:31:31;;;;;;;0.10;0.10;;;;;;;;;;4940031;29;20087;-91
2021/12/14 15:33:57;;;;;;;0.10;0.10;;;;;;;;;;4924219;29;20075;-90
2021/12/14 15:36:26;;;;;;;0.10;0.10;;;;;;;;;;4940136;29;20238;-91
2021/12/14 15:39:00;;;;;;;0.10;0.10;;;;;;;;;;4924300;29;20039;-91